Canela, Brazil
Current Conditions -  °F | °C
As of 9:00 AM on Saturday 25 Oct 2014 (Local Time) from SBCO Reporting Station
Broken Clouds Broken Clouds  
Wind Chill: 70°   Ceiling: 1300
Heat Index: 70°   Visibility: 5mi
Dew Point: 64°   Wind: 3mph
Humidity: 83%   Direction: 150°SSE
Pressure: 29.94"   Gusts: NA
Location:  29.37°S, 50.82°W
Report Text: SBCO 251100Z 15003KT 8000 BKN013 21/18 Q1014
Loading
Personal Weather Stations






























Interactive Weather Map
Tropical Storm Tracking
New forecast layout! Learn more

10-Day Weather Forecast

Advertisements
Track Severe Weather on mobile